Time;durP1;ratioP1;P1;durP2;ratioP2;P2;SDS_P1;SDS_P2;PMS_P1;PMS_P2;Temp;Humidity;BMP_temperature;BMP_pressure;BME280_temperature;BME280_humidity;BME280_pressure;Samples;Min_cycle;Max_cycle;Signal;HPM_P1;HPM_P2
2021/05/15 00:01:04;;;;;;;3.08;2.70;;;16.90;99.90;;;;;;5073261;28;20542;-70
2021/05/15 00:03:30;;;;;;;3.85;3.55;;;16.90;99.90;;;;;;5071509;28;20209;-70
2021/05/15 00:05:56;;;;;;;3.15;2.88;;;16.90;99.90;;;;;;5073294;28;20209;-71
2021/05/15 00:08:23;;;;;;;2.92;2.65;;;16.80;99.90;;;;;;5066302;28;20197;-71
2021/05/15 00:10:50;;;;;;;3.22;2.92;;;16.80;99.90;;;;;;5072953;28;20561;-71
2021/05/15 00:13:16;;;;;;;3.55;3.25;;;16.80;99.90;;;;;;5071546;28;20203;-71
2021/05/15 00:15:42;;;;;;;5.05;3.40;;;16.80;99.90;;;;;;5073467;28;20503;-71
2021/05/15 00:18:09;;;;;;;2.90;2.70;;;16.80;99.90;;;;;;5073031;28;20782;-71
2021/05/15 00:20:35;;;;;;;3.70;3.40;;;16.80;99.90;;;;;;5072709;28;20279;-71
2021/05/15 00:23:01;;;;;;;4.63;3.28;;;16.80;99.90;;;;;;5071794;28;20713;-70
2021/05/15 00:25:27;;;;;;;3.30;3.00;;;16.70;99.90;;;;;;5073105;28;20255;-70
2021/05/15 00:27:54;;;;;;;3.10;2.80;;;16.70;99.90;;;;;;5071128;28;20519;-70
2021/05/15 00:30:21;;;;;;;3.58;3.17;;;16.70;99.90;;;;;;5072367;28;20653;-70
2021/05/15 00:32:47;;;;;;;4.20;3.00;;;16.70;99.90;;;;;;5071517;28;20199;-70
2021/05/15 00:35:14;;;;;;;4.25;2.90;;;16.70;99.90;;;;;;5072503;28;20202;-70
2021/05/15 00:37:40;;;;;;;2.67;2.47;;;16.70;99.90;;;;;;5063829;28;20195;-70
2021/05/15 00:40:09;;;;;;;3.45;3.15;;;16.60;99.90;;;;;;5072508;28;20218;-70
2021/05/15 00:42:36;;;;;;;3.25;2.95;;;16.60;99.90;;;;;;5072744;28;20209;-70
2021/05/15 00:45:06;;;;;;;3.70;3.10;;;16.60;99.90;;;;;;5056360;28;20206;-70
2021/05/15 00:47:33;;;;;;;3.03;2.83;;;16.60;99.90;;;;;;5053285;28;20207;-70
2021/05/15 00:49:59;;;;;;;3.10;2.80;;;16.60;99.90;;;;;;5071505;28;20639;-70
2021/05/15 00:52:27;;;;;;;3.03;2.65;;;16.50;99.90;;;;;;5067650;28;20205;-70
2021/05/15 00:54:54;;;;;;;2.42;2.22;;;16.50;99.90;;;;;;5072014;28;20194;-70
2021/05/15 00:57:21;;;;;;;3.00;2.80;;;16.50;99.90;;;;;;5071199;28;20198;-70
2021/05/15 00:59:47;;;;;;;2.85;2.65;;;16.50;99.90;;;;;;5072042;28;20251;-70
2021/05/15 01:02:14;;;;;;;2.50;2.22;;;16.50;99.90;;;;;;5071065;28;20213;-69
2021/05/15 01:04:40;;;;;;;3.35;2.92;;;16.50;99.90;;;;;;5057769;28;20210;-70
2021/05/15 01:07:08;;;;;;;2.40;2.20;;;16.50;99.90;;;;;;5065268;28;20205;-70
2021/05/15 01:09:34;;;;;;;2.85;2.65;;;16.40;99.90;;;;;;5069141;28;20944;-69
2021/05/15 01:12:04;;;;;;;3.03;2.70;;;16.50;99.90;;;;;;5069237;28;20205;-69
2021/05/15 01:14:31;;;;;;;2.58;2.33;;;16.40;99.90;;;;;;5064361;28;20354;-70
2021/05/15 01:16:57;;;;;;;3.33;2.35;;;16.40;99.90;;;;;;5071368;28;20190;-70
2021/05/15 01:19:24;;;;;;;2.75;2.55;;;16.40;99.90;;;;;;5071665;28;20301;-70
2021/05/15 01:21:51;;;;;;;2.70;2.45;;;16.30;99.90;;;;;;5070706;28;20220;-70
2021/05/15 01:24:17;;;;;;;3.17;2.88;;;16.30;99.90;;;;;;5071738;28;20947;-70
2021/05/15 01:26:44;;;;;;;2.70;2.50;;;16.30;99.90;;;;;;5070213;28;20550;-69
2021/05/15 01:29:10;;;;;;;2.97;2.10;;;16.30;99.90;;;;;;5071031;28;21855;-70
2021/05/15 01:31:38;;;;;;;2.47;2.28;;;16.30;99.90;;;;;;5071141;28;20198;-70
2021/05/15 01:34:04;;;;;;;2.45;2.25;;;16.30;99.90;;;;;;5070215;28;20740;-69
2021/05/15 01:36:35;;;;;;;2.50;2.30;;;16.30;99.90;;;;;;5071330;28;20594;-70
2021/05/15 01:39:03;;;;;;;2.50;1.90;;;16.30;99.90;;;;;;5070127;28;20287;-70
2021/05/15 01:41:29;;;;;;;2.10;1.90;;;16.20;99.90;;;;;;5071043;28;20210;-70
2021/05/15 01:43:57;;;;;;;2.20;2.10;;;16.30;99.90;;;;;;5070130;28;20202;-69
2021/05/15 01:46:23;;;;;;;2.70;2.50;;;16.20;99.90;;;;;;5071345;28;20198;-69
2021/05/15 01:48:50;;;;;;;2.63;2.42;;;16.20;99.90;;;;;;5071460;28;20190;-69
2021/05/15 01:51:16;;;;;;;3.67;2.38;;;16.20;99.90;;;;;;5070809;28;20191;-69
2021/05/15 01:53:44;;;;;;;2.25;2.05;;;16.20;99.90;;;;;;5069629;28;20636;-70
2021/05/15 01:56:14;;;;;;;2.30;2.10;;;16.10;99.90;;;;;;5070467;28;20194;-70
2021/05/15 01:58:40;;;;;;;2.83;2.15;;;16.10;99.90;;;;;;5070591;28;20650;-70
2021/05/15 02:01:08;;;;;;;2.45;2.25;;;16.10;99.90;;;;;;5057568;28;20206;-69
2021/05/15 02:03:35;;;;;;;2.60;2.40;;;16.10;99.90;;;;;;5071036;28;20201;-69
2021/05/15 02:06:02;;;;;;;2.78;2.50;;;16.10;99.90;;;;;;5068320;28;20195;-69
2021/05/15 02:08:28;;;;;;;2.10;1.88;;;16.10;99.90;;;;;;5070725;28;20287;-69
2021/05/15 02:10:56;;;;;;;3.50;3.20;;;16.10;99.90;;;;;;5059717;28;20202;-70
2021/05/15 02:13:26;;;;;;;2.67;2.47;;;16.00;99.90;;;;;;5056846;28;20586;-71
2021/05/15 02:15:53;;;;;;;2.53;2.33;;;16.00;99.90;;;;;;5065737;28;20238;-71
2021/05/15 02:18:19;;;;;;;2.60;2.40;;;16.10;99.90;;;;;;5064636;28;20198;-71
2021/05/15 02:20:46;;;;;;;2.70;2.50;;;16.10;99.90;;;;;;5063941;28;20670;-71
2021/05/15 02:23:13;;;;;;;2.67;2.33;;;16.00;99.90;;;;;;5055136;28;20652;-71
2021/05/15 02:25:40;;;;;;;2.53;1.92;;;16.00;99.90;;;;;;5070677;28;20190;-71
2021/05/15 02:28:06;;;;;;;3.65;2.35;;;15.90;99.90;;;;;;5053524;28;20589;-71
2021/05/15 02:30:34;;;;;;;2.10;1.90;;;15.90;99.90;;;;;;5071505;28;20198;-71
2021/05/15 02:33:00;;;;;;;2.75;2.45;;;15.90;99.90;;;;;;5061703;28;20194;-71
2021/05/15 02:35:27;;;;;;;2.30;2.20;;;15.90;99.90;;;;;;5071699;28;20208;-71
2021/05/15 02:37:55;;;;;;;2.40;2.20;;;15.90;99.90;;;;;;5070911;28;20193;-71
2021/05/15 02:40:22;;;;;;;2.72;1.92;;;15.90;99.90;;;;;;5054260;28;20225;-71
2021/05/15 02:42:49;;;;;;;2.30;2.20;;;15.90;99.90;;;;;;5051118;28;20237;-71
2021/05/15 02:45:17;;;;;;;2.22;2.03;;;15.90;99.90;;;;;;5069561;28;20692;-71
2021/05/15 02:47:44;;;;;;;3.78;2.05;;;15.90;99.90;;;;;;5067259;28;20206;-72
2021/05/15 02:50:13;;;;;;;2.80;2.20;;;15.90;99.90;;;;;;5068590;28;20194;-72
2021/05/15 02:52:39;;;;;;;2.40;2.20;;;15.80;99.90;;;;;;5071355;28;20240;-72
2021/05/15 02:55:08;;;;;;;2.53;2.33;;;15.80;99.90;;;;;;5062185;28;20203;-71
2021/05/15 02:57:35;;;;;;;2.80;2.30;;;15.80;99.90;;;;;;5065619;28;20213;-71
2021/05/15 03:00:01;;;;;;;2.58;2.08;;;15.80;99.90;;;;;;5070543;28;20194;-71
2021/05/15 03:02:27;;;;;;;2.53;2.33;;;15.80;99.90;;;;;;5064683;28;20236;-72
2021/05/15 03:04:54;;;;;;;3.35;2.70;;;15.80;99.90;;;;;;5065913;28;20194;-71
2021/05/15 03:07:20;;;;;;;2.53;2.33;;;15.80;99.90;;;;;;5070804;28;20685;-71
2021/05/15 03:09:46;;;;;;;2.75;2.30;;;15.70;99.90;;;;;;5069469;28;20198;-71
2021/05/15 03:12:13;;;;;;;3.72;2.83;;;15.70;99.90;;;;;;5070618;28;20267;-71
2021/05/15 03:14:40;;;;;;;2.42;2.22;;;15.70;99.90;;;;;;5074575;28;20202;-71
2021/05/15 03:17:07;;;;;;;2.35;2.15;;;15.70;99.90;;;;;;5072122;28;20205;-71
2021/05/15 03:19:33;;;;;;;2.72;2.50;;;15.70;99.90;;;;;;5074761;28;20676;-71
2021/05/15 03:22:00;;;;;;;2.25;2.05;;;15.70;99.90;;;;;;5060069;28;20222;-71
2021/05/15 03:24:26;;;;;;;2.42;1.92;;;15.70;99.90;;;;;;5064063;28;20666;-71
2021/05/15 03:26:53;;;;;;;2.05;1.95;;;15.70;99.90;;;;;;5074298;28;20197;-71
2021/05/15 03:29:19;;;;;;;2.10;1.92;;;15.70;99.90;;;;;;5073408;28;20883;-71
2021/05/15 03:31:45;;;;;;;2.78;2.58;;;15.70;99.90;;;;;;5075052;28;20197;-71
2021/05/15 03:34:11;;;;;;;2.83;2.63;;;15.70;99.90;;;;;;5074697;28;20201;-71
2021/05/15 03:36:37;;;;;;;2.53;2.33;;;15.70;99.90;;;;;;5067082;28;20202;-71
2021/05/15 03:39:05;;;;;;;2.60;2.40;;;15.60;99.90;;;;;;5061285;28;20793;-72
2021/05/15 03:41:31;;;;;;;2.45;2.25;;;15.60;99.90;;;;;;5065953;28;20219;-71
2021/05/15 03:43:57;;;;;;;2.42;2.22;;;15.60;99.90;;;;;;5069173;28;20217;-71
2021/05/15 03:46:24;;;;;;;3.10;2.88;;;15.60;99.90;;;;;;5069613;28;20252;-72
2021/05/15 03:48:50;;;;;;;2.80;2.05;;;15.60;99.90;;;;;;5074568;28;20194;-71
2021/05/15 03:51:16;;;;;;;2.35;2.15;;;15.50;99.90;;;;;;5073276;28;20198;-72
2021/05/15 03:53:42;;;;;;;2.22;2.00;;;15.50;99.90;;;;;;5074248;28;20194;-71
2021/05/15 03:56:10;;;;;;;3.13;2.40;;;15.50;99.90;;;;;;5061848;28;20198;-72
2021/05/15 03:58:36;;;;;;;2.70;2.50;;;15.50;99.90;;;;;;5073357;28;20225;-70
2021/05/15 04:01:03;;;;;;;2.45;2.25;;;15.50;99.90;;;;;;5074476;28;20205;-71
2021/05/15 04:03:29;;;;;;;2.55;2.30;;;15.50;99.90;;;;;;5071853;28;20194;-71
2021/05/15 04:05:55;;;;;;;2.20;2.00;;;15.50;99.90;;;;;;5074264;28;20301;-72
2021/05/15 04:08:21;;;;;;;2.50;2.30;;;15.50;99.90;;;;;;5073564;28;20198;-71
2021/05/15 04:10:47;;;;;;;2.17;1.98;;;15.40;99.90;;;;;;5074234;28;20251;-71
2021/05/15 04:13:22;;;;;;;2.15;1.88;;;15.50;99.90;;;;;;5069396;28;20194;-73
2021/05/15 04:15:53;;;;;;;2.10;2.00;;;15.40;99.90;;;;;;5060963;28;20209;-71
2021/05/15 04:18:20;;;;;;;2.30;2.10;;;15.40;99.90;;;;;;5072382;28;20248;-72
2021/05/15 04:20:46;;;;;;;1.98;1.88;;;15.40;99.90;;;;;;5073527;28;20233;-70
2021/05/15 04:23:13;;;;;;;2.00;1.90;;;15.40;99.90;;;;;;5073091;28;20194;-70
2021/05/15 04:25:40;;;;;;;2.50;2.30;;;15.40;99.90;;;;;;5072611;28;20256;-70
2021/05/15 04:28:07;;;;;;;2.40;2.20;;;15.40;99.90;;;;;;5073084;28;20195;-70
2021/05/15 04:30:35;;;;;;;2.55;2.35;;;15.40;99.90;;;;;;5073618;28;20630;-70
2021/05/15 04:33:01;;;;;;;2.17;1.98;;;15.40;99.90;;;;;;5073671;28;20479;-72
2021/05/15 04:35:28;;;;;;;1.73;1.63;;;15.40;99.90;;;;;;5066709;28;20226;-70
2021/05/15 04:37:54;;;;;;;1.70;1.60;;;15.40;99.90;;;;;;5073791;28;20527;-70
2021/05/15 04:40:20;;;;;;;2.03;1.90;;;15.30;99.90;;;;;;5053584;28;20218;-70
2021/05/15 04:42:47;;;;;;;2.00;1.83;;;15.30;99.90;;;;;;5054856;28;20207;-70
2021/05/15 04:45:15;;;;;;;2.15;1.95;;;15.30;99.90;;;;;;5073008;28;20274;-70
2021/05/15 04:47:42;;;;;;;3.17;2.08;;;15.30;99.90;;;;;;5073410;28;20710;-71
2021/05/15 04:50:10;;;;;;;2.22;1.80;;;15.30;99.90;;;;;;5072174;28;20273;-70
2021/05/15 04:52:37;;;;;;;2.70;2.50;;;15.30;99.90;;;;;;5072700;28;20197;-70
2021/05/15 04:55:04;;;;;;;1.75;1.65;;;15.30;99.90;;;;;;5073081;28;20206;-70
2021/05/15 04:57:30;;;;;;;2.20;1.70;;;15.30;99.90;;;;;;5068274;28;20198;-70
2021/05/15 04:59:56;;;;;;;2.15;1.52;;;15.20;99.90;;;;;;5058232;28;20210;-70
2021/05/15 05:02:22;;;;;;;2.00;1.73;;;15.30;99.90;;;;;;5053501;28;20199;-70
2021/05/15 05:04:49;;;;;;;6.85;1.95;;;15.30;99.90;;;;;;5069531;28;20198;-69
2021/05/15 05:07:16;;;;;;;1.73;1.58;;;15.20;99.90;;;;;;5072785;28;20618;-70
2021/05/15 05:09:42;;;;;;;1.60;1.50;;;15.20;99.90;;;;;;5062751;28;20508;-70
2021/05/15 05:12:08;;;;;;;1.80;1.70;;;15.20;99.90;;;;;;5053038;28;20199;-70
2021/05/15 05:14:35;;;;;;;1.40;1.30;;;15.20;99.90;;;;;;5068365;28;20578;-70
2021/05/15 05:17:01;;;;;;;1.60;1.50;;;15.20;99.90;;;;;;5068589;28;20546;-70
2021/05/15 05:19:28;;;;;;;1.60;1.50;;;15.20;99.90;;;;;;5072427;28;20222;-71
2021/05/15 05:21:56;;;;;;;1.77;1.30;;;15.20;99.90;;;;;;5072523;28;20257;-71
2021/05/15 05:24:22;;;;;;;1.35;1.25;;;15.20;99.90;;;;;;5066792;28;20202;-70
2021/05/15 05:26:49;;;;;;;1.75;1.65;;;15.20;99.90;;;;;;5071992;28;20202;-71
2021/05/15 05:29:15;;;;;;;2.00;1.73;;;15.20;99.90;;;;;;5069200;28;20209;-70
2021/05/15 05:31:44;;;;;;;1.63;1.52;;;15.20;99.90;;;;;;5072553;28;20198;-72
2021/05/15 05:34:10;;;;;;;1.50;1.40;;;15.10;99.90;;;;;;5072067;28;20205;-71
2021/05/15 05:36:38;;;;;;;1.63;1.50;;;15.20;99.90;;;;;;5069696;28;20194;-71
2021/05/15 05:39:10;;;;;;;1.55;1.45;;;15.20;99.90;;;;;;5060224;28;20198;-70
2021/05/15 05:41:36;;;;;;;2.08;1.42;;;15.10;99.90;;;;;;5072130;28;20261;-70
2021/05/15 05:44:03;;;;;;;1.40;1.20;;;15.10;99.90;;;;;;5068871;28;20198;-70
2021/05/15 05:46:29;;;;;;;1.33;1.23;;;15.10;99.90;;;;;;5071887;28;20190;-70
2021/05/15 05:48:55;;;;;;;1.35;1.25;;;15.10;99.90;;;;;;5071835;28;20672;-70
2021/05/15 05:51:21;;;;;;;1.30;1.20;;;15.10;99.90;;;;;;5071400;28;20728;-71
2021/05/15 05:53:47;;;;;;;1.80;1.33;;;15.10;99.90;;;;;;5058909;28;20198;-70
2021/05/15 05:56:14;;;;;;;1.50;1.25;;;15.10;99.90;;;;;;5065664;28;20205;-70
2021/05/15 05:58:44;;;;;;;1.55;1.30;;;15.10;99.90;;;;;;5071873;28;20288;-70
2021/05/15 06:01:10;;;;;;;1.25;1.10;;;15.10;99.90;;;;;;5070413;28;20221;-70
2021/05/15 06:03:37;;;;;;;1.55;1.45;;;15.10;99.90;;;;;;5065305;28;20277;-71
2021/05/15 06:06:03;;;;;;;0.93;0.80;;;15.10;99.90;;;;;;5058602;28;20221;-71
2021/05/15 06:08:29;;;;;;;1.70;1.40;;;15.10;99.90;;;;;;5071470;28;20197;-71
2021/05/15 06:10:55;;;;;;;1.30;1.20;;;15.10;99.90;;;;;;5071828;28;20198;-72
2021/05/15 06:13:22;;;;;;;1.80;1.50;;;15.10;99.90;;;;;;5056900;28;20631;-70
2021/05/15 06:15:49;;;;;;;1.50;1.30;;;15.10;99.90;;;;;;5071642;28;20202;-72
2021/05/15 06:18:15;;;;;;;1.38;1.17;;;15.10;99.90;;;;;;5070170;28;20197;-71
2021/05/15 06:20:42;;;;;;;1.40;1.30;;;15.10;99.90;;;;;;5064832;28;20226;-71
2021/05/15 06:23:08;;;;;;;1.50;1.33;;;15.10;99.90;;;;;;5057056;28;20195;-70
2021/05/15 06:25:34;;;;;;;1.63;1.52;;;15.10;99.90;;;;;;5064068;28;20198;-70
2021/05/15 06:28:01;;;;;;;1.45;1.35;;;15.10;99.90;;;;;;5054158;28;20893;-70
2021/05/15 06:30:28;;;;;;;3.05;1.75;;;15.10;99.90;;;;;;5071325;28;20182;-70
2021/05/15 06:32:54;;;;;;;1.73;1.63;;;15.10;99.90;;;;;;5070608;28;20198;-70
2021/05/15 06:35:20;;;;;;;3.83;1.80;;;15.20;99.90;;;;;;5069093;28;20198;-70
2021/05/15 06:37:46;;;;;;;1.55;1.35;;;15.20;99.90;;;;;;5068718;28;20195;-70
2021/05/15 06:40:13;;;;;;;1.40;1.30;;;15.30;99.90;;;;;;5069666;28;20287;-70
2021/05/15 06:42:40;;;;;;;3.47;1.55;;;15.30;99.90;;;;;;5067243;28;20201;-70
2021/05/15 06:45:08;;;;;;;2.00;1.60;;;15.30;99.90;;;;;;5068562;28;20203;-70
2021/05/15 06:47:36;;;;;;;4.30;1.65;;;15.40;99.90;;;;;;5057064;28;20219;-70
2021/05/15 06:50:03;;;;;;;1.92;1.30;;;15.50;99.90;;;;;;5064743;28;20195;-71
2021/05/15 06:52:29;;;;;;;1.40;1.30;;;15.50;99.90;;;;;;5065659;28;20206;-70
2021/05/15 06:54:56;;;;;;;2.38;1.42;;;15.50;99.90;;;;;;5065773;28;20201;-70
2021/05/15 06:57:22;;;;;;;1.50;1.33;;;15.60;99.90;;;;;;5062949;28;20206;-72
2021/05/15 06:59:48;;;;;;;1.70;1.60;;;15.60;99.90;;;;;;5071153;28;20193;-70
2021/05/15 07:02:15;;;;;;;1.45;1.10;;;15.60;99.90;;;;;;5061610;28;20667;-69
2021/05/15 07:04:42;;;;;;;1.30;1.20;;;15.60;99.90;;;;;;5062651;28;20190;-69
2021/05/15 07:07:08;;;;;;;1.42;1.33;;;15.60;99.90;;;;;;5067534;28;20221;-69
2021/05/15 07:09:34;;;;;;;2.03;1.50;;;15.60;99.90;;;;;;5063086;28;20202;-70
2021/05/15 07:12:00;;;;;;;1.25;1.15;;;15.70;99.90;;;;;;5069613;28;20199;-70
2021/05/15 07:14:28;;;;;;;3.15;1.13;;;15.80;99.90;;;;;;5070972;28;20756;-70
2021/05/15 07:16:54;;;;;;;1.40;1.30;;;16.10;99.90;;;;;;5070237;28;20554;-70
2021/05/15 07:19:20;;;;;;;1.67;1.10;;;16.30;99.90;;;;;;5069773;28;20222;-70
2021/05/15 07:21:47;;;;;;;1.60;1.50;;;16.60;99.90;;;;;;5051585;28;20312;-69
2021/05/15 07:24:13;;;;;;;2.47;1.30;;;16.90;99.90;;;;;;5052996;28;20213;-69
2021/05/15 07:26:40;;;;;;;1.90;1.60;;;17.00;99.90;;;;;;5070375;28;20249;-70
2021/05/15 07:29:06;;;;;;;1.92;1.30;;;17.10;99.90;;;;;;5070204;28;20646;-70
2021/05/15 07:31:32;;;;;;;1.40;1.30;;;17.00;99.90;;;;;;5070434;28;20198;-70
2021/05/15 07:34:01;;;;;;;2.95;1.77;;;16.90;99.90;;;;;;5070904;28;20217;-70
2021/05/15 07:36:27;;;;;;;2.03;1.70;;;16.90;99.90;;;;;;5070658;28;20267;-70
2021/05/15 07:38:54;;;;;;;4.90;2.05;;;16.80;99.90;;;;;;5069251;28;20512;-70
2021/05/15 07:41:22;;;;;;;1.73;1.63;;;16.70;99.90;;;;;;5070360;28;20225;-70
2021/05/15 07:43:48;;;;;;;1.80;1.70;;;16.60;99.90;;;;;;5070864;28;20220;-70
2021/05/15 07:46:15;;;;;;;1.83;1.63;;;16.50;99.90;;;;;;5067996;28;20202;-70
2021/05/15 07:48:42;;;;;;;2.13;1.75;;;16.40;99.90;;;;;;5067749;28;20284;-71
2021/05/15 07:51:10;;;;;;;1.88;1.65;;;16.40;99.90;;;;;;5062557;28;20195;-70
2021/05/15 07:53:36;;;;;;;2.35;1.88;;;16.30;99.90;;;;;;5067536;28;20198;-70
2021/05/15 07:56:04;;;;;;;6.97;2.20;;;16.30;99.90;;;;;;5069971;28;20957;-69
2021/05/15 07:58:31;;;;;;;2.13;1.92;;;16.30;99.90;;;;;;5070822;28;20240;-70
2021/05/15 08:00:57;;;;;;;2.17;1.98;;;16.20;99.90;;;;;;5072860;28;20214;-70
2021/05/15 08:03:24;;;;;;;1.75;1.50;;;16.20;99.90;;;;;;5073881;28;20289;-74
2021/05/15 08:05:50;;;;;;;1.90;1.50;;;16.10;99.90;;;;;;5073695;28;20631;-70
2021/05/15 08:08:17;;;;;;;2.35;2.15;;;16.10;99.90;;;;;;5072705;28;20209;-69
2021/05/15 08:10:43;;;;;;;2.20;2.00;;;16.10;99.90;;;;;;5073829;28;20503;-70
2021/05/15 08:13:10;;;;;;;2.30;2.10;;;16.00;99.90;;;;;;5074166;28;20202;-72
2021/05/15 08:15:36;;;;;;;1.85;1.75;;;16.00;99.90;;;;;;5072555;28;20213;-70
2021/05/15 08:18:02;;;;;;;2.33;2.13;;;16.00;99.90;;;;;;5074148;28;20198;-69
2021/05/15 08:20:29;;;;;;;1.92;1.77;;;16.00;99.90;;;;;;5073409;28;20229;-69
2021/05/15 08:22:56;;;;;;;8.90;8.00;;;16.00;99.90;;;;;;5065967;28;20372;-71
2021/05/15 08:25:25;;;;;;;7.70;6.90;;;15.90;99.90;;;;;;5057689;28;20194;-69
2021/05/15 08:27:53;;;;;;;7.43;6.63;;;15.70;99.90;;;;;;5066442;28;20209;-70
2021/05/15 08:30:22;;;;;;;6.32;5.55;;;15.80;99.90;;;;;;5073400;28;20202;-70
2021/05/15 08:32:50;;;;;;;6.28;5.65;;;15.70;99.90;;;;;;5073595;28;20190;-69
2021/05/15 08:35:17;;;;;;;6.13;5.35;;;15.80;99.90;;;;;;5068981;28;20202;-70
2021/05/15 08:37:44;;;;;;;4.93;4.43;;;15.80;99.90;;;;;;5073641;28;20198;-70
2021/05/15 08:40:11;;;;;;;5.82;5.32;;;15.90;99.90;;;;;;5073382;28;20198;-70
2021/05/15 08:42:39;;;;;;;10.93;9.32;;;16.10;99.90;;;;;;5064810;28;20214;-71
2021/05/15 08:45:08;;;;;;;10.15;9.15;;;15.80;99.90;;;;;;5055465;28;20545;-70
2021/05/15 08:47:37;;;;;;;8.65;7.65;;;15.80;99.90;;;;;;5073479;28;20197;-69
2021/05/15 08:50:07;;;;;;;6.90;6.30;;;15.90;99.90;;;;;;5071892;28;20614;-69
2021/05/15 08:52:37;;;;;;;6.80;6.18;;;16.10;99.90;;;;;;5072541;28;20265;-69
2021/05/15 08:55:05;;;;;;;6.05;5.53;;;16.20;99.90;;;;;;5073248;28;20206;-69
2021/05/15 08:57:32;;;;;;;6.10;5.50;;;16.40;99.90;;;;;;5057229;28;20572;-70
2021/05/15 08:59:58;;;;;;;5.32;4.82;;;16.60;99.90;;;;;;5066811;28;20195;-70
2021/05/15 09:02:24;;;;;;;5.82;5.32;;;16.90;99.90;;;;;;5073134;28;20300;-69
2021/05/15 09:04:51;;;;;;;4.85;4.45;;;17.10;99.90;;;;;;5055867;28;20952;-69
2021/05/15 09:07:17;;;;;;;4.20;3.80;;;17.20;99.90;;;;;;5071310;28;20194;-70
2021/05/15 09:09:43;;;;;;;4.25;3.95;;;17.30;99.90;;;;;;5072727;28;20205;-70
2021/05/15 09:12:10;;;;;;;4.35;3.95;;;17.30;99.90;;;;;;5053679;28;20206;-70
2021/05/15 09:14:36;;;;;;;4.65;4.10;;;17.30;99.90;;;;;;5072502;28;20209;-69
2021/05/15 09:17:02;;;;;;;3.50;3.20;;;17.30;99.90;;;;;;5072689;28;20664;-70
2021/05/15 09:19:29;;;;;;;3.70;3.40;;;17.20;99.90;;;;;;5071296;28;20230;-71
2021/05/15 09:21:59;;;;;;;4.22;3.88;;;17.20;99.90;;;;;;5072653;28;20221;-70
2021/05/15 09:24:29;;;;;;;3.33;3.03;;;17.30;99.90;;;;;;5071097;28;20244;-70
2021/05/15 09:26:56;;;;;;;3.42;3.13;;;17.30;99.90;;;;;;5071966;28;20201;-69
2021/05/15 09:29:22;;;;;;;3.88;3.30;;;17.30;99.90;;;;;;5072139;28;20201;-70
2021/05/15 09:31:49;;;;;;;3.20;3.00;;;17.20;99.90;;;;;;5069578;28;20206;-69
2021/05/15 09:34:15;;;;;;;3.85;3.30;;;17.20;99.90;;;;;;5059666;28;20622;-70
2021/05/15 09:36:43;;;;;;;2.55;2.20;;;17.10;99.90;;;;;;5072544;28;20194;-69
2021/05/15 09:39:12;;;;;;;3.33;3.03;;;17.10;99.90;;;;;;5070876;28;20225;-70
2021/05/15 09:41:41;;;;;;;4.40;2.83;;;17.10;99.90;;;;;;5071562;28;20206;-70
2021/05/15 09:44:09;;;;;;;2.85;2.63;;;17.20;99.90;;;;;;5058084;28;20214;-70
2021/05/15 09:46:37;;;;;;;2.83;2.50;;;17.30;99.90;;;;;;5063829;28;20209;-70
2021/05/15 09:49:03;;;;;;;3.00;2.80;;;17.40;99.90;;;;;;5065551;28;20248;-72
2021/05/15 09:51:30;;;;;;;2.67;2.47;;;17.40;99.90;;;;;;5059352;28;20645;-71
2021/05/15 09:54:13;;;;;;;2.20;2.10;;;17.50;99.90;;;;;;5057801;28;20228;-71
2021/05/15 09:56:39;;;;;;;3.17;2.88;;;17.50;99.90;;;;;;5071537;28;20530;-71
2021/05/15 09:59:05;;;;;;;3.50;3.20;;;17.60;99.90;;;;;;5069993;28;20194;-71
2021/05/15 10:01:40;;;;;;;2.75;2.55;;;17.70;99.90;;;;;;5070230;28;20551;-71
2021/05/15 10:04:06;;;;;;;3.60;2.80;;;17.80;99.90;;;;;;5070148;28;20200;-70
2021/05/15 10:06:32;;;;;;;3.33;2.72;;;17.80;99.90;;;;;;5067277;28;20202;-69
2021/05/15 10:08:58;;;;;;;2.40;2.10;;;17.90;99.90;;;;;;5071761;28;20194;-69
2021/05/15 10:11:25;;;;;;;2.67;2.42;;;17.90;99.90;;;;;;5058116;28;20282;-69
2021/05/15 10:13:52;;;;;;;2.72;2.53;;;18.00;99.90;;;;;;5068396;28;20198;-69
2021/05/15 10:16:19;;;;;;;3.15;2.88;;;18.00;99.90;;;;;;5071374;28;20686;-70
2021/05/15 10:18:45;;;;;;;3.08;2.88;;;18.00;99.90;;;;;;5063237;28;20542;-69
2021/05/15 10:21:12;;;;;;;3.30;3.00;;;18.10;99.90;;;;;;5068316;28;20718;-69
2021/05/15 10:23:39;;;;;;;3.05;2.85;;;18.10;99.90;;;;;;5064217;28;20217;-70
2021/05/15 10:26:08;;;;;;;2.90;2.70;;;18.10;99.90;;;;;;5063734;28;20597;-71
2021/05/15 10:28:36;;;;;;;3.05;2.80;;;18.10;99.90;;;;;;5070905;28;20209;-70
2021/05/15 10:31:13;;;;;;;2.90;2.70;;;18.00;99.90;;;;;;5071059;28;20190;-70
2021/05/15 10:33:41;;;;;;;3.20;3.00;;;18.00;99.90;;;;;;5068112;28;20626;-69
2021/05/15 10:36:19;;;;;;;2.75;2.55;;;17.90;99.90;;;;;;5071519;28;20198;-69
2021/05/15 10:38:46;;;;;;;2.90;2.70;;;17.90;99.90;;;;;;5071178;28;20182;-70
2021/05/15 10:41:14;;;;;;;3.13;2.83;;;17.90;99.90;;;;;;5070523;28;20218;-71
2021/05/15 10:43:43;;;;;;;3.05;2.85;;;17.80;99.90;;;;;;5060567;28;20690;-69
2021/05/15 10:46:18;;;;;;;2.78;2.58;;;17.80;99.90;;;;;;5056636;28;20260;-69
2021/05/15 10:48:56;;;;;;;2.60;2.33;;;17.80;99.90;;;;;;5069433;28;20213;-69
2021/05/15 10:51:37;;;;;;;2.40;2.20;;;17.70;99.90;;;;;;5071018;28;20212;-69
2021/05/15 10:54:04;;;;;;;2.50;2.30;;;17.70;99.90;;;;;;5069674;28;20538;-71
2021/05/15 10:56:31;;;;;;;2.47;2.28;;;17.70;99.90;;;;;;5055019;28;20288;-70
2021/05/15 10:59:04;;;;;;;2.55;2.35;;;17.70;99.90;;;;;;5063937;28;20275;-70
2021/05/15 11:01:43;;;;;;;2.50;2.30;;;17.60;99.90;;;;;;5066512;28;20233;-70
2021/05/15 11:04:20;;;;;;;2.45;2.25;;;17.60;99.90;;;;;;5059309;28;20530;-69
2021/05/15 11:07:01;;;;;;;2.22;2.03;;;17.60;99.90;;;;;;5067851;28;20210;-69
2021/05/15 11:09:28;;;;;;;3.00;2.80;;;17.60;99.90;;;;;;5068062;28;20198;-70
2021/05/15 11:12:05;;;;;;;2.42;2.22;;;17.70;99.90;;;;;;5066359;28;20190;-70
2021/05/15 11:14:34;;;;;;;2.33;2.13;;;17.70;99.90;;;;;;5061262;28;20193;-70
2021/05/15 11:17:05;;;;;;;5.50;2.42;;;17.80;99.90;;;;;;5073020;28;20202;-69
2021/05/15 11:19:32;;;;;;;2.40;2.20;;;17.80;99.90;;;;;;5062131;28;20221;-69
2021/05/15 11:21:58;;;;;;;2.92;2.72;;;17.80;99.90;;;;;;5071079;28;20766;-70
2021/05/15 11:24:32;;;;;;;2.67;2.47;;;17.80;99.90;;;;;;5060449;28;20634;-69
2021/05/15 11:27:08;;;;;;;2.78;2.58;;;17.80;99.90;;;;;;5066255;28;20202;-69
2021/05/15 11:29:36;;;;;;;2.83;2.53;;;17.80;99.90;;;;;;5067403;28;20217;-70
2021/05/15 11:32:11;;;;;;;3.00;2.70;;;17.70;99.90;;;;;;5070444;28;20198;-70
2021/05/15 11:34:38;;;;;;;2.85;2.65;;;17.70;99.90;;;;;;5060971;28;20251;-69
2021/05/15 11:37:06;;;;;;;2.90;2.70;;;17.70;99.90;;;;;;5071874;28;20205;-70
2021/05/15 11:39:32;;;;;;;3.08;2.83;;;17.70;99.90;;;;;;5072083;28;20194;-70
2021/05/15 11:42:12;;;;;;;2.20;2.10;;;17.70;99.90;;;;;;5069662;28;20221;-70
2021/05/15 11:44:41;;;;;;;2.13;1.90;;;17.70;99.90;;;;;;5074707;28;20240;-70
2021/05/15 11:47:09;;;;;;;3.10;2.90;;;17.80;99.90;;;;;;5069019;28;20194;-70
2021/05/15 11:49:36;;;;;;;2.80;2.60;;;17.80;99.90;;;;;;5072160;28;20248;-69
2021/05/15 11:52:05;;;;;;;3.45;2.72;;;17.80;99.90;;;;;;5061255;28;20191;-70
2021/05/15 11:54:32;;;;;;;2.53;2.33;;;17.80;99.90;;;;;;5054062;28;20627;-70
2021/05/15 11:57:00;;;;;;;3.50;3.20;;;17.90;99.90;;;;;;5071739;28;20190;-70
2021/05/15 11:59:28;;;;;;;2.75;2.35;;;17.90;99.90;;;;;;5056787;28;20199;-71
2021/05/15 12:01:56;;;;;;;3.55;3.20;;;17.90;99.90;;;;;;5056160;28;20215;-70
2021/05/15 12:04:27;;;;;;;2.75;2.55;;;17.90;99.90;;;;;;5054524;28;20199;-70
2021/05/15 12:06:55;;;;;;;2.50;2.30;;;17.90;99.90;;;;;;5054372;28;20207;-71
2021/05/15 12:09:22;;;;;;;2.65;2.45;;;17.90;99.90;;;;;;5059862;28;20207;-71
2021/05/15 12:11:56;;;;;;;2.95;2.75;;;18.00;99.90;;;;;;5062023;28;20542;-70
2021/05/15 12:14:23;;;;;;;2.20;2.00;;;17.90;99.90;;;;;;5069840;28;20234;-71
2021/05/15 12:16:49;;;;;;;2.90;2.70;;;17.90;99.90;;;;;;5055969;28;20199;-70
2021/05/15 12:19:22;;;;;;;2.67;2.20;;;17.90;99.90;;;;;;5068975;28;20237;-72
2021/05/15 12:21:56;;;;;;;3.58;2.53;;;17.90;99.90;;;;;;5074290;28;20206;-72
2021/05/15 12:24:22;;;;;;;1.90;1.80;;;17.80;99.90;;;;;;5073307;28;20212;-72
2021/05/15 12:26:48;;;;;;;2.00;1.80;;;17.80;99.90;;;;;;5072073;28;20209;-71
2021/05/15 12:29:14;;;;;;;4.30;2.33;;;17.70;99.90;;;;;;5074056;28;20228;-71
2021/05/15 12:31:42;;;;;;;1.58;1.48;;;17.70;99.90;;;;;;5073356;28;20194;-71
2021/05/15 12:34:08;;;;;;;2.28;2.08;;;17.60;99.90;;;;;;5070505;28;20202;-71
2021/05/15 12:36:36;;;;;;;1.90;1.75;;;17.60;99.90;;;;;;5072791;28;20186;-72
2021/05/15 12:39:06;;;;;;;1.67;1.52;;;17.60;99.90;;;;;;5056504;28;20257;-72
2021/05/15 12:41:35;;;;;;;2.38;1.85;;;17.60;99.90;;;;;;5071647;28;20218;-70
2021/05/15 12:44:04;;;;;;;1.70;1.60;;;17.60;99.90;;;;;;5072935;28;20186;-71
2021/05/15 12:46:32;;;;;;;2.47;1.75;;;17.60;99.90;;;;;;5069706;28;20194;-71
2021/05/15 12:49:00;;;;;;;2.00;1.70;;;17.60;99.90;;;;;;5063144;28;20256;-71